sensor_id;sensor_type;location;lat;lon;timestamp;temperature;humidity
12481;DHT22;6305;48.398;11.762;2023-05-10T00:00:46;12.80;99.90
12481;DHT22;6305;48.398;11.762;2023-05-10T00:03:13;12.80;99.90
12481;DHT22;6305;48.398;11.762;2023-05-10T00:05:40;12.80;99.90
12481;DHT22;6305;48.398;11.762;2023-05-10T00:08:07;12.80;99.90
12481;DHT22;6305;48.398;11.762;2023-05-10T00:10:36;12.70;99.90
12481;DHT22;6305;48.398;11.762;2023-05-10T00:13:03;12.80;99.90
12481;DHT22;6305;48.398;11.762;2023-05-10T00:15:30;12.70;99.90
12481;DHT22;6305;48.398;11.762;2023-05-10T00:17:57;12.80;99.90
12481;DHT22;6305;48.398;11.762;2023-05-10T00:20:24;12.80;99.90
12481;DHT22;6305;48.398;11.762;2023-05-10T00:22:51;12.80;99.90
12481;DHT22;6305;48.398;11.762;2023-05-10T00:25:18;12.80;99.90
12481;DHT22;6305;48.398;11.762;2023-05-10T00:27:48;12.70;99.90
12481;DHT22;6305;48.398;11.762;2023-05-10T00:30:16;12.80;99.90
12481;DHT22;6305;48.398;11.762;2023-05-10T00:32:43;12.70;99.90
12481;DHT22;6305;48.398;11.762;2023-05-10T00:35:10;12.70;99.90
12481;DHT22;6305;48.398;11.762;2023-05-10T00:37:36;12.70;99.90
12481;DHT22;6305;48.398;11.762;2023-05-10T00:40:04;12.70;99.90
12481;DHT22;6305;48.398;11.762;2023-05-10T00:42:32;12.70;99.90
12481;DHT22;6305;48.398;11.762;2023-05-10T00:45:00;12.70;99.90
12481;DHT22;6305;48.398;11.762;2023-05-10T00:47:27;12.70;99.90
12481;DHT22;6305;48.398;11.762;2023-05-10T00:49:55;12.70;99.90
12481;DHT22;6305;48.398;11.762;2023-05-10T00:52:23;12.70;99.90
12481;DHT22;6305;48.398;11.762;2023-05-10T00:54:51;12.70;99.90
12481;DHT22;6305;48.398;11.762;2023-05-10T00:57:19;12.70;99.90
12481;DHT22;6305;48.398;11.762;2023-05-10T00:59:46;12.70;99.90
12481;DHT22;6305;48.398;11.762;2023-05-10T01:02:14;12.70;99.90
12481;DHT22;6305;48.398;11.762;2023-05-10T01:04:41;12.70;99.90
12481;DHT22;6305;48.398;11.762;2023-05-10T01:07:08;12.70;99.90
12481;DHT22;6305;48.398;11.762;2023-05-10T01:09:35;12.70;99.90
12481;DHT22;6305;48.398;11.762;2023-05-10T01:12:02;12.70;99.90
12481;DHT22;6305;48.398;11.762;2023-05-10T01:14:33;12.80;99.90
12481;DHT22;6305;48.398;11.762;2023-05-10T01:17:00;12.70;99.90
12481;DHT22;6305;48.398;11.762;2023-05-10T01:19:30;12.70;99.90
12481;DHT22;6305;48.398;11.762;2023-05-10T01:22:07;12.70;99.90
12481;DHT22;6305;48.398;11.762;2023-05-10T01:25:02;12.70;99.90
12481;DHT22;6305;48.398;11.762;2023-05-10T01:28:07;12.70;99.90
12481;DHT22;6305;48.398;11.762;2023-05-10T01:30:59;12.70;99.90
12481;DHT22;6305;48.398;11.762;2023-05-10T01:33:35;12.60;99.90
12481;DHT22;6305;48.398;11.762;2023-05-10T01:36:11;12.60;99.90
12481;DHT22;6305;48.398;11.762;2023-05-10T01:38:44;12.60;99.90
12481;DHT22;6305;48.398;11.762;2023-05-10T01:41:19;12.60;99.90
12481;DHT22;6305;48.398;11.762;2023-05-10T01:43:56;12.60;99.90
12481;DHT22;6305;48.398;11.762;2023-05-10T01:46:28;12.60;99.90
12481;DHT22;6305;48.398;11.762;2023-05-10T01:49:01;12.60;99.90
12481;DHT22;6305;48.398;11.762;2023-05-10T01:51:44;12.60;99.90
12481;DHT22;6305;48.398;11.762;2023-05-10T01:54:13;12.60;99.90
12481;DHT22;6305;48.398;11.762;2023-05-10T01:56:42;12.60;99.90
12481;DHT22;6305;48.398;11.762;2023-05-10T01:59:13;12.60;99.90
12481;DHT22;6305;48.398;11.762;2023-05-10T02:01:42;12.60;99.90
12481;DHT22;6305;48.398;11.762;2023-05-10T02:04:15;12.60;99.90
12481;DHT22;6305;48.398;11.762;2023-05-10T02:06:45;12.60;99.90
12481;DHT22;6305;48.398;11.762;2023-05-10T02:09:14;12.60;99.90
12481;DHT22;6305;48.398;11.762;2023-05-10T02:11:43;12.60;99.90
12481;DHT22;6305;48.398;11.762;2023-05-10T02:14:11;12.60;99.90
12481;DHT22;6305;48.398;11.762;2023-05-10T02:16:39;12.60;99.90
12481;DHT22;6305;48.398;11.762;2023-05-10T02:19:07;12.60;99.90
12481;DHT22;6305;48.398;11.762;2023-05-10T02:21:37;12.50;99.90
12481;DHT22;6305;48.398;11.762;2023-05-10T02:24:06;12.50;99.90
12481;DHT22;6305;48.398;11.762;2023-05-10T02:26:35;12.50;99.90
12481;DHT22;6305;48.398;11.762;2023-05-10T02:29:02;12.50;99.90
12481;DHT22;6305;48.398;11.762;2023-05-10T02:31:31;12.50;99.90
12481;DHT22;6305;48.398;11.762;2023-05-10T02:33:59;12.50;99.90
12481;DHT22;6305;48.398;11.762;2023-05-10T02:36:27;12.50;99.90
12481;DHT22;6305;48.398;11.762;2023-05-10T02:38:56;12.50;99.90
12481;DHT22;6305;48.398;11.762;2023-05-10T02:41:24;12.50;99.90
12481;DHT22;6305;48.398;11.762;2023-05-10T02:43:56;12.50;99.90
12481;DHT22;6305;48.398;11.762;2023-05-10T02:46:24;12.50;99.90
12481;DHT22;6305;48.398;11.762;2023-05-10T02:48:51;12.50;99.90
12481;DHT22;6305;48.398;11.762;2023-05-10T02:51:19;12.50;99.90
12481;DHT22;6305;48.398;11.762;2023-05-10T02:53:48;12.40;99.90
12481;DHT22;6305;48.398;11.762;2023-05-10T02:56:23;12.40;99.90
12481;DHT22;6305;48.398;11.762;2023-05-10T02:58:52;12.40;99.90
12481;DHT22;6305;48.398;11.762;2023-05-10T03:01:19;12.40;99.90
12481;DHT22;6305;48.398;11.762;2023-05-10T03:03:46;12.40;99.90
12481;DHT22;6305;48.398;11.762;2023-05-10T03:06:13;12.40;99.90
12481;DHT22;6305;48.398;11.762;2023-05-10T03:08:42;12.40;99.90
12481;DHT22;6305;48.398;11.762;2023-05-10T03:11:32;12.40;99.90
12481;DHT22;6305;48.398;11.762;2023-05-10T03:14:12;12.40;99.90
12481;DHT22;6305;48.398;11.762;2023-05-10T03:16:44;12.40;99.90
12481;DHT22;6305;48.398;11.762;2023-05-10T03:19:17;12.40;99.90
12481;DHT22;6305;48.398;11.762;2023-05-10T03:21:49;12.40;99.90
12481;DHT22;6305;48.398;11.762;2023-05-10T03:24:20;12.40;99.90
12481;DHT22;6305;48.398;11.762;2023-05-10T03:26:50;12.40;99.90
12481;DHT22;6305;48.398;11.762;2023-05-10T03:29:20;12.40;99.90
12481;DHT22;6305;48.398;11.762;2023-05-10T03:31:48;12.40;99.90
12481;DHT22;6305;48.398;11.762;2023-05-10T03:34:15;12.30;99.90
12481;DHT22;6305;48.398;11.762;2023-05-10T03:36:43;12.30;99.90
12481;DHT22;6305;48.398;11.762;2023-05-10T03:39:09;12.30;99.90
12481;DHT22;6305;48.398;11.762;2023-05-10T03:41:37;12.30;99.90
12481;DHT22;6305;48.398;11.762;2023-05-10T03:44:05;12.30;99.90
12481;DHT22;6305;48.398;11.762;2023-05-10T03:46:32;12.30;99.90
12481;DHT22;6305;48.398;11.762;2023-05-10T03:48:59;12.30;99.90
12481;DHT22;6305;48.398;11.762;2023-05-10T03:51:26;12.30;99.90
12481;DHT22;6305;48.398;11.762;2023-05-10T03:53:54;12.30;99.90
12481;DHT22;6305;48.398;11.762;2023-05-10T03:56:21;12.30;99.90
12481;DHT22;6305;48.398;11.762;2023-05-10T03:58:48;12.20;99.90
12481;DHT22;6305;48.398;11.762;2023-05-10T04:01:17;12.20;99.90
12481;DHT22;6305;48.398;11.762;2023-05-10T04:03:46;12.20;99.90
12481;DHT22;6305;48.398;11.762;2023-05-10T04:06:12;12.30;99.90
12481;DHT22;6305;48.398;11.762;2023-05-10T04:08:39;12.30;99.90
12481;DHT22;6305;48.398;11.762;2023-05-10T04:11:07;12.30;99.90
12481;DHT22;6305;48.398;11.762;2023-05-10T04:13:34;12.30;99.90
12481;DHT22;6305;48.398;11.762;2023-05-10T04:16:01;12.30;99.90
12481;DHT22;6305;48.398;11.762;2023-05-10T04:18:30;12.30;99.90
12481;DHT22;6305;48.398;11.762;2023-05-10T04:20:57;12.30;99.90
12481;DHT22;6305;48.398;11.762;2023-05-10T04:23:24;12.30;99.90
12481;DHT22;6305;48.398;11.762;2023-05-10T04:25:51;12.40;99.90
12481;DHT22;6305;48.398;11.762;2023-05-10T04:28:18;12.40;99.90
12481;DHT22;6305;48.398;11.762;2023-05-10T04:30:45;12.40;99.90
12481;DHT22;6305;48.398;11.762;2023-05-10T04:33:12;12.40;99.90
12481;DHT22;6305;48.398;11.762;2023-05-10T04:35:41;12.50;99.90
12481;DHT22;6305;48.398;11.762;2023-05-10T04:38:08;12.50;99.90
12481;DHT22;6305;48.398;11.762;2023-05-10T04:40:35;12.40;99.90
12481;DHT22;6305;48.398;11.762;2023-05-10T04:43:01;12.40;99.90
12481;DHT22;6305;48.398;11.762;2023-05-10T04:45:28;12.40;99.90
12481;DHT22;6305;48.398;11.762;2023-05-10T04:47:55;12.50;99.90
12481;DHT22;6305;48.398;11.762;2023-05-10T04:50:22;12.50;99.90
12481;DHT22;6305;48.398;11.762;2023-05-10T04:52:51;12.50;99.90
12481;DHT22;6305;48.398;11.762;2023-05-10T04:55:17;12.50;99.90
12481;DHT22;6305;48.398;11.762;2023-05-10T04:57:44;12.60;99.90
12481;DHT22;6305;48.398;11.762;2023-05-10T05:00:12;12.60;99.90
12481;DHT22;6305;48.398;11.762;2023-05-10T05:02:42;12.60;99.90
12481;DHT22;6305;48.398;11.762;2023-05-10T05:05:09;12.60;99.90
12481;DHT22;6305;48.398;11.762;2023-05-10T05:07:36;12.70;99.90
12481;DHT22;6305;48.398;11.762;2023-05-10T05:10:05;12.60;99.90
12481;DHT22;6305;48.398;11.762;2023-05-10T05:12:32;12.70;99.90
12481;DHT22;6305;48.398;11.762;2023-05-10T05:14:59;12.70;99.90
12481;DHT22;6305;48.398;11.762;2023-05-10T05:17:26;12.70;99.90
12481;DHT22;6305;48.398;11.762;2023-05-10T05:19:53;12.70;99.90
12481;DHT22;6305;48.398;11.762;2023-05-10T05:22:20;12.60;99.90
12481;DHT22;6305;48.398;11.762;2023-05-10T05:24:53;12.70;99.90
12481;DHT22;6305;48.398;11.762;2023-05-10T05:27:21;12.60;99.90
12481;DHT22;6305;48.398;11.762;2023-05-10T05:29:49;12.60;99.90
12481;DHT22;6305;48.398;11.762;2023-05-10T05:32:16;12.50;99.90
12481;DHT22;6305;48.398;11.762;2023-05-10T05:34:44;12.50;99.90
12481;DHT22;6305;48.398;11.762;2023-05-10T05:37:13;12.50;99.90
12481;DHT22;6305;48.398;11.762;2023-05-10T05:39:40;12.60;99.90
12481;DHT22;6305;48.398;11.762;2023-05-10T05:42:07;12.60;99.90
12481;DHT22;6305;48.398;11.762;2023-05-10T05:44:35;12.70;99.90
12481;DHT22;6305;48.398;11.762;2023-05-10T05:47:02;12.70;99.90
12481;DHT22;6305;48.398;11.762;2023-05-10T05:49:30;12.70;99.90
12481;DHT22;6305;48.398;11.762;2023-05-10T05:51:58;12.70;99.90
12481;DHT22;6305;48.398;11.762;2023-05-10T05:54:26;12.70;99.90
12481;DHT22;6305;48.398;11.762;2023-05-10T05:56:54;12.70;99.90
12481;DHT22;6305;48.398;11.762;2023-05-10T05:59:22;12.70;99.90
12481;DHT22;6305;48.398;11.762;2023-05-10T06:01:50;12.70;99.90
12481;DHT22;6305;48.398;11.762;2023-05-10T06:04:17;12.70;99.90
12481;DHT22;6305;48.398;11.762;2023-05-10T06:06:44;12.70;99.90
12481;DHT22;6305;48.398;11.762;2023-05-10T06:09:12;12.70;99.90
12481;DHT22;6305;48.398;11.762;2023-05-10T06:11:39;12.70;99.90
12481;DHT22;6305;48.398;11.762;2023-05-10T06:14:06;12.80;99.90
12481;DHT22;6305;48.398;11.762;2023-05-10T06:16:33;12.80;99.90
12481;DHT22;6305;48.398;11.762;2023-05-10T06:19:02;12.80;99.90
12481;DHT22;6305;48.398;11.762;2023-05-10T06:21:29;12.80;99.90
12481;DHT22;6305;48.398;11.762;2023-05-10T06:23:56;12.90;99.90
12481;DHT22;6305;48.398;11.762;2023-05-10T06:26:23;12.90;99.90
12481;DHT22;6305;48.398;11.762;2023-05-10T06:28:50;12.90;99.90
12481;DHT22;6305;48.398;11.762;2023-05-10T06:31:17;13.00;99.90
12481;DHT22;6305;48.398;11.762;2023-05-10T06:33:44;13.10;99.90
12481;DHT22;6305;48.398;11.762;2023-05-10T06:36:12;13.20;99.90
12481;DHT22;6305;48.398;11.762;2023-05-10T06:38:39;13.20;99.90
12481;DHT22;6305;48.398;11.762;2023-05-10T06:41:07;13.20;99.90
12481;DHT22;6305;48.398;11.762;2023-05-10T06:43:34;13.20;99.90
12481;DHT22;6305;48.398;11.762;2023-05-10T06:46:02;13.20;99.90
12481;DHT22;6305;48.398;11.762;2023-05-10T06:48:29;13.20;99.90
12481;DHT22;6305;48.398;11.762;2023-05-10T06:50:56;13.10;99.90
12481;DHT22;6305;48.398;11.762;2023-05-10T06:53:24;13.10;99.90
12481;DHT22;6305;48.398;11.762;2023-05-10T06:55:51;13.10;99.90
12481;DHT22;6305;48.398;11.762;2023-05-10T06:58:18;13.20;99.90
12481;DHT22;6305;48.398;11.762;2023-05-10T07:00:45;13.20;99.90
12481;DHT22;6305;48.398;11.762;2023-05-10T07:03:12;13.30;99.90
12481;DHT22;6305;48.398;11.762;2023-05-10T07:05:39;13.60;99.90
12481;DHT22;6305;48.398;11.762;2023-05-10T07:08:06;13.80;99.90
12481;DHT22;6305;48.398;11.762;2023-05-10T07:10:35;14.10;99.90
12481;DHT22;6305;48.398;11.762;2023-05-10T07:13:02;14.20;99.90
12481;DHT22;6305;48.398;11.762;2023-05-10T07:15:29;14.50;99.90
12481;DHT22;6305;48.398;11.762;2023-05-10T07:17:56;14.70;99.90
12481;DHT22;6305;48.398;11.762;2023-05-10T07:20:23;15.00;99.90
12481;DHT22;6305;48.398;11.762;2023-05-10T07:22:50;15.20;99.90
12481;DHT22;6305;48.398;11.762;2023-05-10T07:25:17;15.60;99.90
12481;DHT22;6305;48.398;11.762;2023-05-10T07:27:45;16.10;99.90
12481;DHT22;6305;48.398;11.762;2023-05-10T07:30:14;16.50;99.90
12481;DHT22;6305;48.398;11.762;2023-05-10T07:32:41;16.70;99.90
12481;DHT22;6305;48.398;11.762;2023-05-10T07:35:08;16.60;99.90
12481;DHT22;6305;48.398;11.762;2023-05-10T07:37:35;16.50;99.90
12481;DHT22;6305;48.398;11.762;2023-05-10T07:40:03;17.30;99.90
12481;DHT22;6305;48.398;11.762;2023-05-10T07:42:30;17.90;99.90
12481;DHT22;6305;48.398;11.762;2023-05-10T07:44:58;18.20;99.90
12481;DHT22;6305;48.398;11.762;2023-05-10T07:47:25;18.40;99.90
12481;DHT22;6305;48.398;11.762;2023-05-10T07:49:52;18.70;99.90
12481;DHT22;6305;48.398;11.762;2023-05-10T07:52:19;19.40;99.90
12481;DHT22;6305;48.398;11.762;2023-05-10T07:54:47;19.80;99.90
12481;DHT22;6305;48.398;11.762;2023-05-10T07:57:14;20.00;99.90
12481;DHT22;6305;48.398;11.762;2023-05-10T07:59:43;20.50;99.90
12481;DHT22;6305;48.398;11.762;2023-05-10T08:02:12;21.00;99.90
12481;DHT22;6305;48.398;11.762;2023-05-10T08:04:38;22.20;99.90
12481;DHT22;6305;48.398;11.762;2023-05-10T08:07:05;22.70;99.90
12481;DHT22;6305;48.398;11.762;2023-05-10T08:09:32;23.00;98.30
12481;DHT22;6305;48.398;11.762;2023-05-10T08:11:59;22.90;94.20
12481;DHT22;6305;48.398;11.762;2023-05-10T08:14:28;22.70;91.80
12481;DHT22;6305;48.398;11.762;2023-05-10T08:16:55;22.00;92.60
12481;DHT22;6305;48.398;11.762;2023-05-10T08:19:23;21.20;94.40
12481;DHT22;6305;48.398;11.762;2023-05-10T08:21:50;20.60;98.70
12481;DHT22;6305;48.398;11.762;2023-05-10T08:24:17;20.40;99.90
12481;DHT22;6305;48.398;11.762;2023-05-10T08:26:45;20.80;99.90
12481;DHT22;6305;48.398;11.762;2023-05-10T08:29:11;21.40;99.90
12481;DHT22;6305;48.398;11.762;2023-05-10T08:31:38;22.80;98.20
12481;DHT22;6305;48.398;11.762;2023-05-10T08:34:06;22.50;90.40
12481;DHT22;6305;48.398;11.762;2023-05-10T08:36:34;21.90;88.60
12481;DHT22;6305;48.398;11.762;2023-05-10T08:39:01;21.30;90.50
12481;DHT22;6305;48.398;11.762;2023-05-10T08:41:29;20.80;91.90
12481;DHT22;6305;48.398;11.762;2023-05-10T08:43:59;20.30;94.60
12481;DHT22;6305;48.398;11.762;2023-05-10T08:46:30;20.10;94.20
12481;DHT22;6305;48.398;11.762;2023-05-10T08:48:58;20.00;96.80
12481;DHT22;6305;48.398;11.762;2023-05-10T08:51:27;20.00;97.10
12481;DHT22;6305;48.398;11.762;2023-05-10T08:54:01;19.60;96.90
12481;DHT22;6305;48.398;11.762;2023-05-10T08:56:28;19.30;99.10
12481;DHT22;6305;48.398;11.762;2023-05-10T08:58:55;18.60;99.30
12481;DHT22;6305;48.398;11.762;2023-05-10T09:01:23;18.20;99.90
12481;DHT22;6305;48.398;11.762;2023-05-10T09:03:50;17.70;99.90
12481;DHT22;6305;48.398;11.762;2023-05-10T09:06:18;17.30;99.90
12481;DHT22;6305;48.398;11.762;2023-05-10T09:08:45;17.10;99.90
12481;DHT22;6305;48.398;11.762;2023-05-10T09:11:13;17.00;99.90
12481;DHT22;6305;48.398;11.762;2023-05-10T09:13:41;17.00;99.90
12481;DHT22;6305;48.398;11.762;2023-05-10T09:16:09;17.10;99.90
12481;DHT22;6305;48.398;11.762;2023-05-10T09:18:36;17.10;99.90
12481;DHT22;6305;48.398;11.762;2023-05-10T09:21:03;16.90;99.90
12481;DHT22;6305;48.398;11.762;2023-05-10T09:23:29;16.70;99.90
12481;DHT22;6305;48.398;11.762;2023-05-10T09:26:04;16.30;99.90
12481;DHT22;6305;48.398;11.762;2023-05-10T09:28:51;16.10;99.90
12481;DHT22;6305;48.398;11.762;2023-05-10T09:31:18;16.30;99.90
12481;DHT22;6305;48.398;11.762;2023-05-10T09:33:45;16.70;99.90
12481;DHT22;6305;48.398;11.762;2023-05-10T09:36:12;17.30;99.90
12481;DHT22;6305;48.398;11.762;2023-05-10T09:38:46;19.10;99.90
12481;DHT22;6305;48.398;11.762;2023-05-10T09:41:18;20.20;99.90
12481;DHT22;6305;48.398;11.762;2023-05-10T09:43:47;21.10;99.90
12481;DHT22;6305;48.398;11.762;2023-05-10T09:46:15;21.70;99.90
12481;DHT22;6305;48.398;11.762;2023-05-10T09:48:43;21.90;99.90
12481;DHT22;6305;48.398;11.762;2023-05-10T09:51:16;21.80;95.70
12481;DHT22;6305;48.398;11.762;2023-05-10T09:53:45;21.10;90.70
12481;DHT22;6305;48.398;11.762;2023-05-10T09:56:12;20.40;92.40
12481;DHT22;6305;48.398;11.762;2023-05-10T09:58:40;20.00;94.60
12481;DHT22;6305;48.398;11.762;2023-05-10T10:01:11;19.90;96.70
12481;DHT22;6305;48.398;11.762;2023-05-10T10:03:42;19.70;99.20
12481;DHT22;6305;48.398;11.762;2023-05-10T10:06:09;19.20;99.90
12481;DHT22;6305;48.398;11.762;2023-05-10T10:08:36;18.70;99.90
12481;DHT22;6305;48.398;11.762;2023-05-10T10:11:03;18.60;99.90
12481;DHT22;6305;48.398;11.762;2023-05-10T10:13:30;18.70;99.90
12481;DHT22;6305;48.398;11.762;2023-05-10T10:15:58;19.20;99.90
12481;DHT22;6305;48.398;11.762;2023-05-10T10:18:26;19.70;99.90
12481;DHT22;6305;48.398;11.762;2023-05-10T10:20:54;20.00;99.90
12481;DHT22;6305;48.398;11.762;2023-05-10T10:23:22;20.00;99.90
12481;DHT22;6305;48.398;11.762;2023-05-10T10:25:49;20.00;99.90
12481;DHT22;6305;48.398;11.762;2023-05-10T10:28:24;20.40;99.90
12481;DHT22;6305;48.398;11.762;2023-05-10T10:30:54;20.80;99.90
12481;DHT22;6305;48.398;11.762;2023-05-10T10:33:39;21.00;99.90
12481;DHT22;6305;48.398;11.762;2023-05-10T10:36:07;21.10;99.90
12481;DHT22;6305;48.398;11.762;2023-05-10T10:41:29;20.80;99.90
12481;DHT22;6305;48.398;11.762;2023-05-10T10:47:21;20.60;99.90
12481;DHT22;6305;48.398;11.762;2023-05-10T10:50:07;21.10;99.90
12481;DHT22;6305;48.398;11.762;2023-05-10T10:52:35;21.80;99.20
12481;DHT22;6305;48.398;11.762;2023-05-10T10:55:05;22.70;96.00
12481;DHT22;6305;48.398;11.762;2023-05-10T10:57:42;23.30;90.80
12481;DHT22;6305;48.398;11.762;2023-05-10T11:00:26;23.70;81.40
12481;DHT22;6305;48.398;11.762;2023-05-10T11:02:57;23.90;78.70
12481;DHT22;6305;48.398;11.762;2023-05-10T11:05:41;24.20;76.90
12481;DHT22;6305;48.398;11.762;2023-05-10T11:08:14;24.00;72.60
12481;DHT22;6305;48.398;11.762;2023-05-10T11:13:38;23.10;71.90
12481;DHT22;6305;48.398;11.762;2023-05-10T11:16:14;22.70;73.10
12481;DHT22;6305;48.398;11.762;2023-05-10T11:18:58;22.90;74.20
12481;DHT22;6305;48.398;11.762;2023-05-10T11:21:28;23.60;74.10
12481;DHT22;6305;48.398;11.762;2023-05-10T11:23:56;24.70;67.70
12481;DHT22;6305;48.398;11.762;2023-05-10T11:26:24;25.20;62.40
12481;DHT22;6305;48.398;11.762;2023-05-10T11:28:53;25.40;59.50
12481;DHT22;6305;48.398;11.762;2023-05-10T11:31:22;25.30;58.70
12481;DHT22;6305;48.398;11.762;2023-05-10T11:33:53;25.20;58.20
12481;DHT22;6305;48.398;11.762;2023-05-10T11:36:23;24.50;57.00
12481;DHT22;6305;48.398;11.762;2023-05-10T11:38:52;23.70;58.70
12481;DHT22;6305;48.398;11.762;2023-05-10T11:41:20;22.60;57.80
12481;DHT22;6305;48.398;11.762;2023-05-10T11:43:50;21.50;58.90
12481;DHT22;6305;48.398;11.762;2023-05-10T11:46:19;20.80;61.50
12481;DHT22;6305;48.398;11.762;2023-05-10T11:48:49;20.20;65.90
12481;DHT22;6305;48.398;11.762;2023-05-10T11:51:20;19.60;69.20
12481;DHT22;6305;48.398;11.762;2023-05-10T11:53:49;18.80;75.80
12481;DHT22;6305;48.398;11.762;2023-05-10T11:56:18;18.20;90.70
12481;DHT22;6305;48.398;11.762;2023-05-10T11:58:52;17.80;96.40
12481;DHT22;6305;48.398;11.762;2023-05-10T12:01:20;17.50;99.90
12481;DHT22;6305;48.398;11.762;2023-05-10T12:03:48;17.20;99.90
12481;DHT22;6305;48.398;11.762;2023-05-10T12:06:15;17.10;99.90
12481;DHT22;6305;48.398;11.762;2023-05-10T12:08:45;17.00;99.90
12481;DHT22;6305;48.398;11.762;2023-05-10T12:11:12;16.90;99.90
12481;DHT22;6305;48.398;11.762;2023-05-10T12:13:43;16.90;99.90
12481;DHT22;6305;48.398;11.762;2023-05-10T12:16:16;16.90;99.90
12481;DHT22;6305;48.398;11.762;2023-05-10T12:18:43;16.90;99.90
12481;DHT22;6305;48.398;11.762;2023-05-10T12:21:11;17.00;99.90
12481;DHT22;6305;48.398;11.762;2023-05-10T12:23:39;17.00;99.90
12481;DHT22;6305;48.398;11.762;2023-05-10T12:26:06;17.20;99.90
12481;DHT22;6305;48.398;11.762;2023-05-10T12:28:35;17.40;99.90
12481;DHT22;6305;48.398;11.762;2023-05-10T12:31:05;17.50;99.90
12481;DHT22;6305;48.398;11.762;2023-05-10T12:33:39;17.60;99.90
12481;DHT22;6305;48.398;11.762;2023-05-10T12:36:09;17.80;99.90
12481;DHT22;6305;48.398;11.762;2023-05-10T12:38:37;17.90;99.90
12481;DHT22;6305;48.398;11.762;2023-05-10T12:41:05;17.90;99.90
12481;DHT22;6305;48.398;11.762;2023-05-10T12:43:33;17.80;99.90
12481;DHT22;6305;48.398;11.762;2023-05-10T12:46:06;17.80;99.90
12481;DHT22;6305;48.398;11.762;2023-05-10T12:48:34;17.80;99.90
12481;DHT22;6305;48.398;11.762;2023-05-10T12:51:01;17.80;99.90
12481;DHT22;6305;48.398;11.762;2023-05-10T12:53:28;17.90;99.90
12481;DHT22;6305;48.398;11.762;2023-05-10T12:55:55;17.90;99.90
12481;DHT22;6305;48.398;11.762;2023-05-10T12:58:22;17.90;99.90
12481;DHT22;6305;48.398;11.762;2023-05-10T13:00:49;17.80;99.90
12481;DHT22;6305;48.398;11.762;2023-05-10T13:03:19;17.30;99.90
12481;DHT22;6305;48.398;11.762;2023-05-10T13:05:46;16.90;99.90
12481;DHT22;6305;48.398;11.762;2023-05-10T13:08:12;16.40;99.90
12481;DHT22;6305;48.398;11.762;2023-05-10T13:10:40;15.90;99.90
12481;DHT22;6305;48.398;11.762;2023-05-10T13:13:07;15.50;99.90
12481;DHT22;6305;48.398;11.762;2023-05-10T13:15:34;15.10;99.90
12481;DHT22;6305;48.398;11.762;2023-05-10T13:18:01;14.70;99.90
12481;DHT22;6305;48.398;11.762;2023-05-10T13:20:29;14.50;99.90
12481;DHT22;6305;48.398;11.762;2023-05-10T13:22:56;14.30;99.90
12481;DHT22;6305;48.398;11.762;2023-05-10T13:25:23;14.10;99.90
12481;DHT22;6305;48.398;11.762;2023-05-10T13:27:50;14.10;99.90
12481;DHT22;6305;48.398;11.762;2023-05-10T13:30:17;14.00;99.90
12481;DHT22;6305;48.398;11.762;2023-05-10T13:32:44;13.90;99.90
12481;DHT22;6305;48.398;11.762;2023-05-10T13:35:11;13.90;99.90
12481;DHT22;6305;48.398;11.762;2023-05-10T13:37:39;13.90;99.90
12481;DHT22;6305;48.398;11.762;2023-05-10T13:40:07;13.90;99.90
12481;DHT22;6305;48.398;11.762;2023-05-10T13:42:34;13.80;99.90
12481;DHT22;6305;48.398;11.762;2023-05-10T13:45:01;13.70;99.90
12481;DHT22;6305;48.398;11.762;2023-05-10T13:47:30;13.70;99.90
12481;DHT22;6305;48.398;11.762;2023-05-10T13:49:57;13.70;99.90
12481;DHT22;6305;48.398;11.762;2023-05-10T13:52:24;13.70;99.90
12481;DHT22;6305;48.398;11.762;2023-05-10T13:54:52;13.80;99.90
12481;DHT22;6305;48.398;11.762;2023-05-10T13:57:20;13.80;99.90
12481;DHT22;6305;48.398;11.762;2023-05-10T13:59:47;14.00;99.90
12481;DHT22;6305;48.398;11.762;2023-05-10T14:02:14;14.10;99.90
12481;DHT22;6305;48.398;11.762;2023-05-10T14:04:42;14.20;99.90
12481;DHT22;6305;48.398;11.762;2023-05-10T14:07:09;14.40;99.90
12481;DHT22;6305;48.398;11.762;2023-05-10T14:09:36;14.60;99.90
12481;DHT22;6305;48.398;11.762;2023-05-10T14:12:04;14.70;99.90
12481;DHT22;6305;48.398;11.762;2023-05-10T14:14:31;14.80;99.90
12481;DHT22;6305;48.398;11.762;2023-05-10T14:16:58;14.80;99.90
12481;DHT22;6305;48.398;11.762;2023-05-10T14:19:25;14.80;99.90
12481;DHT22;6305;48.398;11.762;2023-05-10T14:21:53;14.70;99.90
12481;DHT22;6305;48.398;11.762;2023-05-10T14:24:20;14.50;99.90
12481;DHT22;6305;48.398;11.762;2023-05-10T14:26:47;14.60;99.90
12481;DHT22;6305;48.398;11.762;2023-05-10T14:29:15;14.70;99.90
12481;DHT22;6305;48.398;11.762;2023-05-10T14:31:43;14.70;99.90
12481;DHT22;6305;48.398;11.762;2023-05-10T14:34:09;14.70;99.90
12481;DHT22;6305;48.398;11.762;2023-05-10T14:36:36;14.60;99.90
12481;DHT22;6305;48.398;11.762;2023-05-10T14:39:03;14.60;99.90
12481;DHT22;6305;48.398;11.762;2023-05-10T14:41:30;14.50;99.90
12481;DHT22;6305;48.398;11.762;2023-05-10T14:43:57;14.60;99.90
12481;DHT22;6305;48.398;11.762;2023-05-10T14:46:25;14.50;99.90
12481;DHT22;6305;48.398;11.762;2023-05-10T14:48:53;14.60;99.90
12481;DHT22;6305;48.398;11.762;2023-05-10T14:51:20;14.60;99.90
12481;DHT22;6305;48.398;11.762;2023-05-10T14:53:47;14.50;99.90
12481;DHT22;6305;48.398;11.762;2023-05-10T14:56:15;14.40;99.90
12481;DHT22;6305;48.398;11.762;2023-05-10T14:58:42;14.40;99.90
12481;DHT22;6305;48.398;11.762;2023-05-10T15:01:08;14.20;99.90
12481;DHT22;6305;48.398;11.762;2023-05-10T15:03:37;14.10;99.90
12481;DHT22;6305;48.398;11.762;2023-05-10T15:06:04;14.20;99.90
12481;DHT22;6305;48.398;11.762;2023-05-10T15:08:31;14.20;99.90
12481;DHT22;6305;48.398;11.762;2023-05-10T15:10:58;14.20;99.90
12481;DHT22;6305;48.398;11.762;2023-05-10T15:13:25;14.10;99.90
12481;DHT22;6305;48.398;11.762;2023-05-10T15:15:52;14.00;99.90
12481;DHT22;6305;48.398;11.762;2023-05-10T15:18:19;14.00;99.90
12481;DHT22;6305;48.398;11.762;2023-05-10T15:20:47;13.90;99.90
12481;DHT22;6305;48.398;11.762;2023-05-10T15:23:14;13.90;99.90
12481;DHT22;6305;48.398;11.762;2023-05-10T15:25:41;13.80;99.90
12481;DHT22;6305;48.398;11.762;2023-05-10T15:28:08;13.80;99.90
12481;DHT22;6305;48.398;11.762;2023-05-10T15:30:35;13.70;99.90
12481;DHT22;6305;48.398;11.762;2023-05-10T15:33:02;13.60;99.90
12481;DHT22;6305;48.398;11.762;2023-05-10T15:35:29;13.60;99.90
12481;DHT22;6305;48.398;11.762;2023-05-10T15:37:57;13.60;99.90
12481;DHT22;6305;48.398;11.762;2023-05-10T15:40:24;13.60;99.90
12481;DHT22;6305;48.398;11.762;2023-05-10T15:42:51;13.60;99.90
12481;DHT22;6305;48.398;11.762;2023-05-10T15:45:18;13.50;99.90
12481;DHT22;6305;48.398;11.762;2023-05-10T15:47:45;13.40;99.90